Terminal Aerodrome Forecast
Issued by NWS

Home | Current Version | Previous Version | Text Only | Print | Product List | Glossary On
Versions: 1 2 3 4 5 6 7 8 9 10 11 12 13 14 15 16 17 18
000
FTUS42 KILM 181120
TAFCRE
TAF
KCRE 181120Z 1812/1912 VRB06KT P6SM OVC020
     FM182000 23006KT P6SM BKN015
     FM182100 22007KT 2SM BR BKN015
     FM190000 25008KT 1SM BR BKN008=

USA.gov is the U.S. government's official web portal to all federal, state and local government web resources and services.